• Join FlightAware (Why Join?)
  • Login
  • US Flag 
07:41AM EST


 

Airport Tracker/Info


-or-


 

Live Flight TrackerFlight Track Log ✈ UAL6858 ✈ 09-Apr-2013 ✈ KINT - KIAH

Flight Track Log - Related Links

Times and Time Zones

All times are in EDT time to prevent confusion due to time zone crossing. See the UAL6858 flight status page for this flight to view local times or setup timezone preferences in your user account.

Time Position Orientation Groundspeed Altitude Reporting Facility
EDT Latitude Longitude Course Direction KTS MPH feet Rate Location/Type
01:42AM 36.0892 -80.1742 321° Northwest 198 228 3,800  Level Atlanta Center
01:43AM 36.0442 -80.2022 207° Southwest 179 206 7,100 3,840 Climbing Atlanta Center
01:44AM 36.0239 -80.2853 253° West 191 220 11,500 3,660 Climbing Atlanta Center
01:45AM 35.9894 -80.3894 248° West 259 298 14,500 3,240 Climbing Atlanta Center
01:46AM 35.9511 -80.5042 248° West 319 367 18,000 3,600 Climbing Atlanta Center
01:47AM 35.9092 -80.6417 249° West 368 423 21,800 3,360 Climbing Atlanta Center
01:48AM 36.5626 -80.7626 321° Northwest  Level FlightAware Approximate
01:48AM 35.8686 -80.7664 248° West 386 444 24,800  Level Atlanta Center
01:49AM 35.8283 -80.8986 249° West 406 467 27,500 2,820 Climbing Atlanta Center
01:50AM 35.7858 -81.0333 249° West 413 475 30,500 2,880 Climbing Atlanta Center
01:51AM 35.7469 -81.1578 249° West 408 470 33,300 2,160 Climbing Atlanta Center
01:52AM 35.7061 -81.2894 249° West 408 470 34,900 2,100 Climbing Atlanta Center
01:53AM 35.6633 -81.4214 248° West 415 478 37,600 2,160 Climbing Atlanta Center
01:54AM 35.6200 -81.5453 247° West 408 470 39,300 1,200 Climbing Atlanta Center
01:55AM 35.5786 -81.6692 248° West 396 456 40,000 300 Climbing Atlanta Center
01:56AM 35.5369 -81.7928 248° West 396 456 40,000  Level Atlanta Center
01:57AM 35.4956 -81.9164 248° West 396 456 40,000  Level Atlanta Center
01:58AM 35.4558 -82.0400 249° West 396 456 40,000  Level Atlanta Center
01:59AM 35.4139 -82.1658 248° West 396 456 40,000  Level Atlanta Center
02:00AM 35.3719 -82.2864 247° West 396 456 40,000  Level Atlanta Center
02:01AM 35.3297 -82.4119 248° West 396 456 40,000  Level Atlanta Center
02:02AM 35.2936 -82.5197 248° West 391 450 40,000  Level Atlanta Center
02:03AM 35.2514 -82.6425 247° West 391 450 40,000  Level Atlanta Center
02:04AM 35.2047 -82.7756 247° West 397 457 40,000  Level Atlanta Center
02:05AM 35.1642 -82.8981 248° West 397 457 40,000  Level Atlanta Center
02:06AM 35.1214 -83.0181 246° West 397 457 40,000  Level Atlanta Center
02:07AM 35.0786 -83.1428 247° West 397 457 40,000  Level Atlanta Center
02:08AM 35.0356 -83.2650 247° West 397 457 40,000  Level Atlanta Center
02:09AM 34.9925 -83.3847 246° West 397 457 40,000  Level Atlanta Center
02:10AM 34.9492 -83.5092 247° West 392 451 40,000  Level Atlanta Center
02:11AM 34.9058 -83.6283 246° West 397 457 40,000  Level Atlanta Center
02:12AM 34.8644 -83.7528 248° West 397 457 40,000  Level Atlanta Center
02:13AM 34.8208 -83.8742 246° West 397 457 40,000  Level Atlanta Center
02:14AM 34.7753 -84.0008 246° West 397 457 40,000  Level Atlanta Center
02:15AM 34.7314 -84.1247 247° West 397 457 40,000  Level Atlanta Center
02:16AM 34.6894 -84.2458 247° West 397 457 40,000  Level Atlanta Center
02:17AM 34.6475 -84.3694 248° West 399 459 40,000  Level Atlanta Center
02:18AM 34.6033 -84.4906 246° West 399 459 40,000  Level Atlanta Center
02:19AM 34.5611 -84.6089 247° West 399 459 40,000  Level Atlanta Center
02:20AM 34.5167 -84.7294 246° West 394 453 40,000  Level Atlanta Center
02:21AM 34.4719 -84.8500 246° West 394 453 40,000  Level Atlanta Center
02:22AM 34.4358 -84.9556 247° West 394 453 40,000  Level Atlanta Center
02:23AM 34.3911 -85.0758 246° West 394 453 40,000  Level Atlanta Center
02:24AM 34.3461 -85.1911 245° Southwest 394 453 40,000  Level Atlanta Center
02:25AM 34.3033 -85.3086 246° West 394 453 40,000  Level Atlanta Center
02:26AM 34.2603 -85.4286 247° West 394 453 40,000  Level Atlanta Center
02:27AM 34.2150 -85.5436 245° Southwest 394 453 40,000  Level Atlanta Center
02:28AM 34.1717 -85.6608 246° West 388 447 40,000  Level Atlanta Center
02:29AM 34.1286 -85.7753 246° West 388 447 40,000  Level Atlanta Center
02:30AM 34.0875 -85.8725 243° Southwest 375 432 40,000  Level Atlanta Center
02:31AM 34.0394 -85.9992 245° Southwest 375 432 40,000  Level Atlanta Center
02:32AM 33.9958 -86.1158 246° West 385 443 40,000  Level Atlanta Center
02:33AM 33.9500 -86.2325 245° Southwest 385 443 40,000  Level Atlanta Center
02:34AM 33.9061 -86.3489 246° West 385 443 40,000  Level Atlanta Center
02:35AM 33.8622 -86.4653 246° West 385 443 40,000  Level Atlanta Center
02:36AM 33.8161 -86.5817 245° Southwest 385 443 40,000  Level Atlanta Center
02:37AM 33.7697 -86.7003 245° Southwest 385 443 40,000  Level Atlanta Center
02:38AM 33.7253 -86.8161 245° Southwest 385 443 40,000  Level Atlanta Center
02:39AM 33.6789 -86.9319 244° Southwest 385 443 40,000  Level Atlanta Center
02:40AM 33.6344 -87.0478 245° Southwest 390 449 40,000  Level Atlanta Center
02:41AM 33.5875 -87.1683 245° Southwest 390 449 40,000  Level Atlanta Center
02:42AM 33.5428 -87.2814 245° Southwest 390 449 40,000  Level Atlanta Center
02:43AM 33.4908 -87.4181 246° West 376 433 40,000  Level Memphis Center
02:44AM 33.4414 -87.5342 243° Southwest 383 441 40,000  Level Memphis Center
02:45AM 33.3961 -87.6525 245° Southwest 388 447 40,000  Level Memphis Center
02:46AM 33.3544 -87.7583 245° Southwest 388 447 40,000  Level Memphis Center
02:47AM 33.3089 -87.8739 245° Southwest 388 447 40,000  Level Memphis Center
02:48AM 33.2631 -87.9919 245° Southwest 388 447 40,000  Level Memphis Center
02:49AM 33.2172 -88.1050 244° Southwest 388 447 40,000  Level Memphis Center
02:50AM 33.1711 -88.2178 244° Southwest 388 447 40,000  Level Memphis Center
02:51AM 33.1292 -88.3331 247° West 388 447 40,000  Level Memphis Center
02:52AM 33.0808 -88.4458 243° Southwest 388 447 40,000  Level Memphis Center
02:53AM 33.0347 -88.5583 244° Southwest 388 447 40,000  Level Memphis Center
02:54AM 32.9881 -88.6706 244° Southwest 388 447 40,000  Level Memphis Center
02:55AM 32.9417 -88.7853 244° Southwest 388 447 40,000  Level Memphis Center
02:56AM 32.8972 -88.8975 245° Southwest 388 447 40,000  Level Memphis Center
02:57AM 32.8503 -89.0094 243° Southwest 383 441 40,000  Level Memphis Center
02:58AM 32.8036 -89.1189 243° Southwest 383 441 40,000  Level Memphis Center
02:59AM 32.7567 -89.2308 244° Southwest 383 441 40,000  Level Memphis Center
03:00AM 32.7075 -89.3425 242° Southwest 383 441 40,000  Level Memphis Center
03:01AM 32.6622 -89.4567 245° Southwest 388 447 40,000  Level Memphis Center
03:02AM 32.6150 -89.5681 243° Southwest 388 447 40,000  Level Memphis Center
03:03AM 32.5656 -89.6794 242° Southwest 388 447 40,000  Level Memphis Center
03:04AM 32.5183 -89.7906 243° Southwest 388 447 40,000  Level Memphis Center
03:05AM 32.4728 -89.9017 244° Southwest 388 447 40,000  Level Memphis Center
03:06AM 32.4250 -90.0128 243° Southwest 388 447 40,000  Level Memphis Center
03:09AM 32.3186 -90.2653 244° Southwest 381 438 40,000  Level Houston Center
03:10AM 32.2711 -90.3753 243° Southwest 377 434 40,000  Level Houston Center
03:11AM 32.2236 -90.4864 243° Southwest 380 437 40,000 -60 Level Houston Center
03:12AM 32.1761 -90.5961 243° Southwest 377 434 39,900 -60 Descending Houston Center
03:13AM 32.1278 -90.7072 243° Southwest 381 438 39,900  Level Houston Center
03:14AM 32.0817 -90.8158 243° Southwest 380 437 40,000  Climbing Houston Center
03:15AM 32.0336 -90.9261 243° Southwest 380 437 40,000  Level Houston Center
03:16AM 31.9861 -91.0383 244° Southwest 381 438 40,000  Level Houston Center
03:17AM 31.9347 -91.1486 241° Southwest 382 440 40,000  Level Houston Center
03:18AM 31.8869 -91.2608 243° Southwest 383 441 40,000  Level Houston Center
03:19AM 31.8369 -91.3719 242° Southwest 385 443 40,000  Level Houston Center
03:20AM 31.7878 -91.4839 243° Southwest 386 444 40,000  Level Houston Center
03:21AM 31.7389 -91.5953 243° Southwest 386 444 40,000  Level Houston Center
03:22AM 31.6875 -91.7069 242° Southwest 386 444 40,000  Level Houston Center
03:23AM 31.6386 -91.8186 243° Southwest 386 444 40,000  Level Houston Center
03:24AM 31.5886 -91.9292 242° Southwest 386 444 40,000 -60 Level Houston Center
03:25AM 31.5378 -92.0403 242° Southwest 386 444 39,900  Descending Houston Center
03:26AM 31.4847 -92.1511 241° Southwest 390 449 40,000  Climbing Houston Center
03:27AM 31.4344 -92.2614 242° Southwest 386 444 39,900  Descending Houston Center
03:28AM 31.3850 -92.3711 242° Southwest 384 442 40,000  Climbing Houston Center
03:29AM 31.3364 -92.4814 243° Southwest 382 440 39,900  Descending Houston Center
03:30AM 31.2858 -92.5911 242° Southwest 383 441 40,000  Climbing Houston Center
03:31AM 31.2375 -92.7017 243° Southwest 383 441 40,000  Level Houston Center
03:32AM 31.1864 -92.8114 241° Southwest 383 441 40,000 -60 Level Houston Center
03:33AM 31.1361 -92.9203 242° Southwest 381 438 39,900  Descending Houston Center
03:34AM 31.0858 -93.0303 242° Southwest 385 443 40,000  Climbing Houston Center
03:35AM 31.0369 -93.1383 242° Southwest 381 438 40,000 -60 Level Houston Center
03:36AM 30.9858 -93.2483 242° Southwest 385 443 39,900  Descending Houston Center
03:37AM 30.9353 -93.3558 241° Southwest 382 440 40,000  Climbing Houston Center
03:38AM 30.8844 -93.4644 241° Southwest 383 441 39,900 -60 Descending Houston Center
03:39AM 30.8239 -93.5942 241° Southwest 383 441 39,900 -240 Level Houston Center
03:40AM 30.7731 -93.7017 241° Southwest 383 441 39,500 -600 Descending Houston Center
03:41AM 30.7364 -93.7800 241° Southwest 387 445 38,900 -1,440 Descending Houston Center
03:41AM 30.7219 -93.8131 243° Southwest 392 451 38,100 -3,000 Descending Houston Center
03:42AM 30.6792 -93.9000 240° Southwest 404 465 35,900 -3,300 Descending Houston Center
03:42AM 30.6664 -93.9256 240° Southwest 402 463 34,800 -4,080 Descending Houston Center
03:42AM 30.6306 -94.0014 241° Southwest 410 472 32,200 -4,140 Descending Houston Center
03:43AM 30.6111 -94.0439 242° Southwest 418 481 30,700 -4,380 Descending Houston Center
03:43AM 30.5717 -94.1258 241° Southwest 425 489 27,800 -3,900 Descending Houston Center
03:44AM 30.5547 -94.1619 241° Southwest 422 486 26,800 -1,620 Descending Houston Center
03:44AM 30.5181 -94.2400 241° Southwest 419 482 26,200 -900 Descending Houston Center
03:45AM 30.4992 -94.2794 241° Southwest 419 482 25,900 -1,020 Descending Houston Center
03:45AM 30.4589 -94.3642 241° Southwest 418 481 25,200 -1,020 Descending Houston Center
03:46AM 30.4431 -94.3958 240° Southwest 418 481 24,900 -1,200 Descending Houston Center
03:46AM 30.4050 -94.4781 242° Southwest 413 475 24,000 -1,800 Descending Houston Center
03:47AM 30.3864 -94.5167 241° Southwest 412 474 23,100 -3,180 Descending Houston Center
03:48AM 30.3436 -94.6047 241° Southwest 388 447 20,500 -3,240 Descending Houston Center
03:49AM 30.2928 -94.7081 240° Southwest 368 423 17,300 -2,640 Descending Houston Center
03:50AM 30.2436 -94.8086 241° Southwest 355 409 15,200 -2,040 Descending Houston Center
03:51AM 30.1961 -94.9067 241° Southwest 352 405 13,200 -1,740 Descending Houston Center
03:52AM 30.1486 -95.0044 241° Southwest 344 396 11,700 -1,380 Descending Houston Center
03:53AM 30.1031 -95.0994 241° Southwest 312 359 10,500 -1,260 Descending Houston Center
03:54AM 30.0878 -95.1858 258° West 273 314 9,200 -1,560 Descending Houston Center
03:55AM 30.0917 -95.2722 273° West 267 307 7,400 -1,500 Descending Houston Center
03:56AM 30.0994 -95.3583 276° West 278 320 6,200 -900 Descending Houston Center
03:57AM 30.1050 -95.4422 274° West 254 292 5,600 -960 Descending Houston Center
03:58AM 30.1119 -95.5186 276° West 232 267 4,300 -840 Descending Houston Center
03:59AM 30.1175 -95.5783 276° West 179 206 4,000 -180 Descending Houston Center
04:00AM 30.0789 -95.5925 198° South 125 144 4,000  Level Houston Center
04:01AM 30.0394 -95.5997 189° South 141 162 4,000  Level Houston Center
04:02AM 30.0017 -95.5753 151° Southeast 185 213 4,000 -600 Level Houston Center
04:03AM 29.9917 -95.5111 100° East 218 251 2,800 -1,140 Descending Houston Center
04:04AM 29.9928 -95.4531 89° East 186 214 1,700 -900 Descending Houston Center
04:05AM 29.9931 -95.4097 90° East 122 140 1,100 -660 Descending Houston Center
04:06AM 29.9933 -95.3686 90° East 122 140 400 -720 Descending Houston Center